createdAt,value
2022-10-30T00:00:30.203Z,10.47
2022-10-30T00:03:33.218Z,9.90
2022-10-30T00:06:50.447Z,10.47
2022-10-30T00:09:53.436Z,11.00
2022-10-30T00:12:53.026Z,9.90
2022-10-30T00:26:43.159Z,10.40
2022-10-30T00:29:38.094Z,11.53
2022-10-30T00:33:24.486Z,9.77
2022-10-30T00:36:08.128Z,10.43
2022-10-30T00:39:26.105Z,10.27
2022-10-30T00:42:21.323Z,9.80
2022-10-30T00:45:12.620Z,9.43
2022-10-30T00:48:24.001Z,9.60
2022-10-30T00:51:37.165Z,9.53
2022-10-30T00:54:35.087Z,9.30
2022-10-30T00:57:29.018Z,10.13
2022-10-30T01:00:16.926Z,10.07
2022-10-30T01:02:53.195Z,9.93
2022-10-30T01:05:46.362Z,9.60
2022-10-30T01:08:33.595Z,8.13
2022-10-30T01:11:23.003Z,9.37
2022-10-30T01:14:25.806Z,9.37
2022-10-30T01:25:41.568Z,9.60
2022-10-30T01:28:52.498Z,9.30
2022-10-30T01:31:40.839Z,8.63
2022-10-30T01:37:43.790Z,9.60
2022-10-30T01:40:34.624Z,9.93
2022-10-30T01:43:31.929Z,9.00
2022-10-30T01:47:12.586Z,8.83
2022-10-30T01:50:23.076Z,9.00
2022-10-30T01:56:07.129Z,8.43
2022-10-30T01:58:53.944Z,9.13
2022-10-30T02:02:01.483Z,10.23
2022-10-30T02:04:41.695Z,8.77
2022-10-30T02:07:21.647Z,9.53
2022-10-30T02:10:16.449Z,9.50
2022-10-30T02:13:12.985Z,10.20
2022-10-30T02:17:13.412Z,10.07
2022-10-30T02:20:21.814Z,8.50
2022-10-30T02:27:07.371Z,9.40
2022-10-30T02:30:03.235Z,10.00
2022-10-30T02:32:51.754Z,9.37
2022-10-30T02:39:14.255Z,10.43
2022-10-30T02:42:08.478Z,10.87
2022-10-30T02:44:53.929Z,10.47
2022-10-30T02:47:32.445Z,9.37
2022-10-30T02:51:24.782Z,10.23
2022-10-30T02:54:30.446Z,9.87
2022-10-30T02:57:33.519Z,9.63
2022-10-30T03:00:35.543Z,9.20
2022-10-30T03:03:24.329Z,9.97
2022-10-30T03:06:13.601Z,10.07
2022-10-30T03:08:50.090Z,9.77
2022-10-30T03:14:37.045Z,8.73
2022-10-30T03:25:24.767Z,10.10
2022-10-30T03:28:16.397Z,10.00
2022-10-30T03:31:13.028Z,10.00
2022-10-30T03:34:22.336Z,10.10
2022-10-30T03:36:58.766Z,10.60
2022-10-30T03:39:51.839Z,10.57
2022-10-30T03:42:39.956Z,10.63
2022-10-30T03:45:52.016Z,11.13
2022-10-30T03:52:23.932Z,11.77
2022-10-30T03:55:24.063Z,11.43
2022-10-30T03:58:24.808Z,10.70
2022-10-30T04:01:20.653Z,11.03
2022-10-30T04:03:56.059Z,10.67
2022-10-30T04:06:51.513Z,11.80
2022-10-30T04:09:40.332Z,11.13
2022-10-30T04:13:20.982Z,10.67
2022-10-30T04:20:12.197Z,11.10
2022-10-30T04:26:21.193Z,10.27
2022-10-30T04:32:52.597Z,10.53
2022-10-30T04:35:40.049Z,10.50
2022-10-30T04:39:01.038Z,10.10
2022-10-30T04:41:45.212Z,10.63
2022-10-30T04:45:14.060Z,10.53
2022-10-30T04:48:10.644Z,10.20
2022-10-30T04:51:22.329Z,10.90
2022-10-30T04:54:43.091Z,11.80
2022-10-30T04:57:39.598Z,10.03
2022-10-30T05:00:46.699Z,11.00
2022-10-30T05:04:00.455Z,10.27
2022-10-30T05:06:49.307Z,11.43
2022-10-30T05:09:30.437Z,10.53
2022-10-30T05:12:37.870Z,12.03
2022-10-30T05:16:22.091Z,11.90
2022-10-30T05:22:39.944Z,11.30
2022-10-30T05:25:59.052Z,11.63
2022-10-30T05:28:52.221Z,12.00
2022-10-30T05:32:04.537Z,11.67
2022-10-30T05:35:30.900Z,11.67
2022-10-30T05:38:21.867Z,12.83
2022-10-30T05:40:50.499Z,13.57
2022-10-30T05:43:32.243Z,11.93
2022-10-30T05:47:44.509Z,10.90
2022-10-30T05:50:37.671Z,10.53
2022-10-30T05:56:56.351Z,11.20
2022-10-30T05:59:42.120Z,11.20
2022-10-30T06:02:34.447Z,11.43
2022-10-30T06:05:13.704Z,11.73
2022-10-30T06:07:55.125Z,10.70
2022-10-30T06:10:47.648Z,11.10
2022-10-30T06:13:51.027Z,11.57
2022-10-30T06:23:47.953Z,12.20
2022-10-30T06:26:30.084Z,12.37
2022-10-30T06:29:27.467Z,11.90
2022-10-30T06:32:27.289Z,12.80
2022-10-30T06:35:31.564Z,13.17
2022-10-30T06:38:32.389Z,12.03
2022-10-30T06:41:02.857Z,12.40
2022-10-30T06:43:51.979Z,13.50
2022-10-30T06:46:33.462Z,13.13
2022-10-30T06:55:38.278Z,12.90
2022-10-30T06:58:24.003Z,12.30
2022-10-30T07:01:08.532Z,11.60
2022-10-30T07:03:49.102Z,11.37
2022-10-30T07:06:29.905Z,12.60
2022-10-30T07:09:12.406Z,11.37
2022-10-30T07:15:27.884Z,12.50
2022-10-30T07:18:33.313Z,11.90
2022-10-30T07:25:13.495Z,12.13
2022-10-30T07:28:53.458Z,13.33
2022-10-30T07:32:07.237Z,13.17
2022-10-30T07:35:00.168Z,12.47
2022-10-30T07:37:54.499Z,12.77
2022-10-30T07:40:32.905Z,13.00
2022-10-30T07:43:34.371Z,12.57
2022-10-30T07:52:40.598Z,12.80
2022-10-30T07:55:53.532Z,12.27
2022-10-30T07:58:45.568Z,11.90
2022-10-30T08:01:29.016Z,12.03
2022-10-30T08:04:32.942Z,12.30
2022-10-30T08:07:30.225Z,12.33
2022-10-30T08:10:41.530Z,12.10
2022-10-30T09:52:59.432Z,9.47
2022-10-30T10:03:41.625Z,8.63
2022-10-30T10:26:48.744Z,9.17
2022-10-30T21:04:09.726Z,3.00
2022-10-30T21:59:09.893Z,2.90
2022-10-30T22:21:34.621Z,2.60
2022-10-30T22:24:57.661Z,2.80
2022-10-30T22:49:54.693Z,3.63
2022-10-30T23:07:37.221Z,3.43
2022-10-30T23:14:16.832Z,3.40
2022-10-30T23:24:46.787Z,3.50
2022-10-30T23:55:09.317Z,4.07
